sensor_id;sensor_type;location;lat;lon;timestamp;P1;durP1;ratioP1;P2;durP2;ratioP2
30874;SDS011;17581;43.222;27.924;2024-02-21T00:00:45;38.90;;;19.25;;
30874;SDS011;17581;43.222;27.924;2024-02-21T00:03:10;31.23;;;19.08;;
30874;SDS011;17581;43.222;27.924;2024-02-21T00:05:36;34.78;;;18.48;;
30874;SDS011;17581;43.222;27.924;2024-02-21T00:08:01;35.72;;;17.80;;
30874;SDS011;17581;43.222;27.924;2024-02-21T00:10:28;35.08;;;18.33;;
30874;SDS011;17581;43.222;27.924;2024-02-21T00:12:54;45.30;;;19.88;;
30874;SDS011;17581;43.222;27.924;2024-02-21T00:15:19;31.65;;;16.52;;
30874;SDS011;17581;43.222;27.924;2024-02-21T00:17:46;37.58;;;17.55;;
30874;SDS011;17581;43.222;27.924;2024-02-21T00:20:12;39.42;;;19.65;;
30874;SDS011;17581;43.222;27.924;2024-02-21T00:22:37;30.33;;;18.58;;
30874;SDS011;17581;43.222;27.924;2024-02-21T00:25:03;36.00;;;17.98;;
30874;SDS011;17581;43.222;27.924;2024-02-21T00:27:29;34.95;;;17.20;;
30874;SDS011;17581;43.222;27.924;2024-02-21T00:29:54;28.58;;;16.60;;
30874;SDS011;17581;43.222;27.924;2024-02-21T00:32:20;27.40;;;16.45;;
30874;SDS011;17581;43.222;27.924;2024-02-21T00:34:45;31.33;;;14.82;;
30874;SDS011;17581;43.222;27.924;2024-02-21T00:37:11;33.88;;;16.15;;
30874;SDS011;17581;43.222;27.924;2024-02-21T00:39:36;19.77;;;14.10;;
30874;SDS011;17581;43.222;27.924;2024-02-21T00:42:02;26.63;;;15.82;;
30874;SDS011;17581;43.222;27.924;2024-02-21T00:44:28;21.90;;;14.68;;
30874;SDS011;17581;43.222;27.924;2024-02-21T00:46:53;24.10;;;14.98;;
30874;SDS011;17581;43.222;27.924;2024-02-21T00:49:19;22.95;;;14.27;;
30874;SDS011;17581;43.222;27.924;2024-02-21T00:51:44;26.60;;;15.75;;
30874;SDS011;17581;43.222;27.924;2024-02-21T00:54:10;26.13;;;15.45;;
30874;SDS011;17581;43.222;27.924;2024-02-21T00:56:35;34.17;;;13.88;;
30874;SDS011;17581;43.222;27.924;2024-02-21T00:59:01;31.42;;;15.43;;
30874;SDS011;17581;43.222;27.924;2024-02-21T01:01:26;39.78;;;15.63;;
30874;SDS011;17581;43.222;27.924;2024-02-21T01:03:52;41.22;;;16.83;;
30874;SDS011;17581;43.222;27.924;2024-02-21T01:06:19;37.22;;;16.33;;
30874;SDS011;17581;43.222;27.924;2024-02-21T01:08:45;42.58;;;18.60;;
30874;SDS011;17581;43.222;27.924;2024-02-21T01:11:14;47.13;;;23.95;;
30874;SDS011;17581;43.222;27.924;2024-02-21T01:13:40;51.88;;;27.33;;
30874;SDS011;17581;43.222;27.924;2024-02-21T01:16:06;54.67;;;27.25;;
30874;SDS011;17581;43.222;27.924;2024-02-21T01:18:32;46.10;;;21.42;;
30874;SDS011;17581;43.222;27.924;2024-02-21T01:20:58;55.70;;;28.75;;
30874;SDS011;17581;43.222;27.924;2024-02-21T01:23:24;49.80;;;25.02;;
30874;SDS011;17581;43.222;27.924;2024-02-21T01:25:50;36.85;;;20.98;;
30874;SDS011;17581;43.222;27.924;2024-02-21T01:28:16;36.58;;;21.70;;
30874;SDS011;17581;43.222;27.924;2024-02-21T01:30:41;40.05;;;22.63;;
30874;SDS011;17581;43.222;27.924;2024-02-21T01:33:07;46.60;;;21.58;;
30874;SDS011;17581;43.222;27.924;2024-02-21T01:35:33;31.95;;;19.17;;
30874;SDS011;17581;43.222;27.924;2024-02-21T01:37:59;33.90;;;21.75;;
30874;SDS011;17581;43.222;27.924;2024-02-21T01:40:25;47.88;;;28.65;;
30874;SDS011;17581;43.222;27.924;2024-02-21T01:42:50;41.22;;;20.60;;
30874;SDS011;17581;43.222;27.924;2024-02-21T01:45:18;48.10;;;28.85;;
30874;SDS011;17581;43.222;27.924;2024-02-21T01:47:44;38.38;;;24.33;;
30874;SDS011;17581;43.222;27.924;2024-02-21T01:50:10;22.10;;;15.65;;
30874;SDS011;17581;43.222;27.924;2024-02-21T01:52:39;28.38;;;14.73;;
30874;SDS011;17581;43.222;27.924;2024-02-21T01:55:05;20.67;;;13.82;;
30874;SDS011;17581;43.222;27.924;2024-02-21T01:57:31;24.73;;;13.98;;
30874;SDS011;17581;43.222;27.924;2024-02-21T01:59:57;26.27;;;14.45;;
30874;SDS011;17581;43.222;27.924;2024-02-21T02:02:22;27.58;;;15.13;;
30874;SDS011;17581;43.222;27.924;2024-02-21T02:04:49;21.23;;;14.60;;
30874;SDS011;17581;43.222;27.924;2024-02-21T02:07:16;22.80;;;14.10;;
30874;SDS011;17581;43.222;27.924;2024-02-21T02:09:43;22.60;;;14.30;;
30874;SDS011;17581;43.222;27.924;2024-02-21T02:12:08;22.75;;;13.35;;
30874;SDS011;17581;43.222;27.924;2024-02-21T02:14:34;18.88;;;14.07;;
30874;SDS011;17581;43.222;27.924;2024-02-21T02:17:00;25.27;;;13.05;;
30874;SDS011;17581;43.222;27.924;2024-02-21T02:19:25;19.88;;;14.25;;
30874;SDS011;17581;43.222;27.924;2024-02-21T02:21:52;20.38;;;12.30;;
30874;SDS011;17581;43.222;27.924;2024-02-21T02:24:22;22.17;;;13.68;;
30874;SDS011;17581;43.222;27.924;2024-02-21T02:26:50;19.95;;;12.77;;
30874;SDS011;17581;43.222;27.924;2024-02-21T02:29:15;19.23;;;13.02;;
30874;SDS011;17581;43.222;27.924;2024-02-21T02:31:42;21.77;;;14.23;;
30874;SDS011;17581;43.222;27.924;2024-02-21T02:34:07;20.70;;;13.20;;
30874;SDS011;17581;43.222;27.924;2024-02-21T02:36:33;16.83;;;12.98;;
30874;SDS011;17581;43.222;27.924;2024-02-21T02:38:59;19.65;;;12.68;;
30874;SDS011;17581;43.222;27.924;2024-02-21T02:41:24;29.50;;;17.17;;
30874;SDS011;17581;43.222;27.924;2024-02-21T02:43:50;20.80;;;14.07;;
30874;SDS011;17581;43.222;27.924;2024-02-21T02:46:15;22.15;;;13.18;;
30874;SDS011;17581;43.222;27.924;2024-02-21T02:48:41;25.52;;;16.15;;
30874;SDS011;17581;43.222;27.924;2024-02-21T02:51:07;48.33;;;30.25;;
30874;SDS011;17581;43.222;27.924;2024-02-21T02:53:32;35.78;;;23.85;;
30874;SDS011;17581;43.222;27.924;2024-02-21T02:55:58;32.78;;;18.80;;
30874;SDS011;17581;43.222;27.924;2024-02-21T02:58:23;30.42;;;18.80;;
30874;SDS011;17581;43.222;27.924;2024-02-21T03:00:49;36.53;;;21.55;;
30874;SDS011;17581;43.222;27.924;2024-02-21T03:03:14;39.72;;;23.95;;
30874;SDS011;17581;43.222;27.924;2024-02-21T03:05:40;46.35;;;27.20;;
30874;SDS011;17581;43.222;27.924;2024-02-21T03:08:05;44.80;;;25.55;;
30874;SDS011;17581;43.222;27.924;2024-02-21T03:10:34;43.42;;;25.13;;
30874;SDS011;17581;43.222;27.924;2024-02-21T03:13:00;47.08;;;26.20;;
30874;SDS011;17581;43.222;27.924;2024-02-21T03:15:25;50.28;;;27.70;;
30874;SDS011;17581;43.222;27.924;2024-02-21T03:17:51;48.50;;;27.60;;
30874;SDS011;17581;43.222;27.924;2024-02-21T03:20:16;54.33;;;26.95;;
30874;SDS011;17581;43.222;27.924;2024-02-21T03:22:42;58.58;;;29.20;;
30874;SDS011;17581;43.222;27.924;2024-02-21T03:25:08;54.47;;;29.55;;
30874;SDS011;17581;43.222;27.924;2024-02-21T03:27:35;61.45;;;32.22;;
30874;SDS011;17581;43.222;27.924;2024-02-21T03:30:00;69.40;;;29.75;;
30874;SDS011;17581;43.222;27.924;2024-02-21T03:32:26;62.38;;;34.00;;
30874;SDS011;17581;43.222;27.924;2024-02-21T03:34:53;61.22;;;31.30;;
30874;SDS011;17581;43.222;27.924;2024-02-21T03:37:19;54.78;;;34.40;;
30874;SDS011;17581;43.222;27.924;2024-02-21T03:39:45;64.60;;;32.40;;
30874;SDS011;17581;43.222;27.924;2024-02-21T03:42:10;91.22;;;36.63;;
30874;SDS011;17581;43.222;27.924;2024-02-21T03:44:36;57.92;;;32.67;;
30874;SDS011;17581;43.222;27.924;2024-02-21T03:47:02;66.03;;;34.45;;
30874;SDS011;17581;43.222;27.924;2024-02-21T03:49:27;55.40;;;32.95;;
30874;SDS011;17581;43.222;27.924;2024-02-21T03:51:53;63.85;;;32.92;;
30874;SDS011;17581;43.222;27.924;2024-02-21T03:54:19;58.65;;;32.47;;
30874;SDS011;17581;43.222;27.924;2024-02-21T03:56:45;55.40;;;32.22;;
30874;SDS011;17581;43.222;27.924;2024-02-21T03:59:12;59.15;;;33.20;;
30874;SDS011;17581;43.222;27.924;2024-02-21T04:01:38;60.65;;;30.80;;
30874;SDS011;17581;43.222;27.924;2024-02-21T04:04:03;55.22;;;32.03;;
30874;SDS011;17581;43.222;27.924;2024-02-21T04:06:29;61.30;;;32.47;;
30874;SDS011;17581;43.222;27.924;2024-02-21T04:08:55;57.58;;;32.13;;
30874;SDS011;17581;43.222;27.924;2024-02-21T04:11:20;47.58;;;30.90;;
30874;SDS011;17581;43.222;27.924;2024-02-21T04:13:46;61.25;;;30.90;;
30874;SDS011;17581;43.222;27.924;2024-02-21T04:16:14;59.83;;;32.20;;
30874;SDS011;17581;43.222;27.924;2024-02-21T04:18:40;50.55;;;29.55;;
30874;SDS011;17581;43.222;27.924;2024-02-21T04:21:06;55.85;;;31.95;;
30874;SDS011;17581;43.222;27.924;2024-02-21T04:23:32;57.45;;;30.35;;
30874;SDS011;17581;43.222;27.924;2024-02-21T04:25:57;74.28;;;34.83;;
30874;SDS011;17581;43.222;27.924;2024-02-21T04:28:23;49.08;;;32.42;;
30874;SDS011;17581;43.222;27.924;2024-02-21T04:30:48;49.80;;;29.10;;
30874;SDS011;17581;43.222;27.924;2024-02-21T04:33:14;80.50;;;36.53;;
30874;SDS011;17581;43.222;27.924;2024-02-21T04:35:39;49.67;;;30.30;;
30874;SDS011;17581;43.222;27.924;2024-02-21T04:38:05;69.30;;;33.90;;
30874;SDS011;17581;43.222;27.924;2024-02-21T04:40:30;81.25;;;39.97;;
30874;SDS011;17581;43.222;27.924;2024-02-21T04:42:57;74.40;;;37.10;;
30874;SDS011;17581;43.222;27.924;2024-02-21T04:45:22;53.42;;;31.38;;
30874;SDS011;17581;43.222;27.924;2024-02-21T04:47:48;66.32;;;33.05;;
30874;SDS011;17581;43.222;27.924;2024-02-21T04:50:14;71.25;;;33.03;;
30874;SDS011;17581;43.222;27.924;2024-02-21T04:52:39;55.08;;;31.33;;
30874;SDS011;17581;43.222;27.924;2024-02-21T04:55:05;56.97;;;32.13;;
30874;SDS011;17581;43.222;27.924;2024-02-21T04:57:31;56.03;;;31.13;;
30874;SDS011;17581;43.222;27.924;2024-02-21T04:59:56;60.92;;;33.33;;
30874;SDS011;17581;43.222;27.924;2024-02-21T05:02:22;71.97;;;33.50;;
30874;SDS011;17581;43.222;27.924;2024-02-21T05:04:49;71.63;;;34.17;;
30874;SDS011;17581;43.222;27.924;2024-02-21T05:07:15;61.05;;;34.42;;
30874;SDS011;17581;43.222;27.924;2024-02-21T05:09:44;70.07;;;33.92;;
30874;SDS011;17581;43.222;27.924;2024-02-21T05:12:09;60.30;;;32.10;;
30874;SDS011;17581;43.222;27.924;2024-02-21T05:14:35;75.95;;;34.13;;
30874;SDS011;17581;43.222;27.924;2024-02-21T05:17:00;96.03;;;38.90;;
30874;SDS011;17581;43.222;27.924;2024-02-21T05:19:26;80.88;;;37.75;;
30874;SDS011;17581;43.222;27.924;2024-02-21T05:21:51;70.75;;;37.83;;
30874;SDS011;17581;43.222;27.924;2024-02-21T05:24:17;66.15;;;35.92;;
30874;SDS011;17581;43.222;27.924;2024-02-21T05:26:42;88.72;;;36.83;;
30874;SDS011;17581;43.222;27.924;2024-02-21T05:29:08;65.18;;;36.63;;
30874;SDS011;17581;43.222;27.924;2024-02-21T05:34:18;95.10;;;38.20;;
30874;SDS011;17581;43.222;27.924;2024-02-21T05:36:44;56.13;;;31.80;;
30874;SDS011;17581;43.222;27.924;2024-02-21T05:39:09;82.43;;;35.05;;
30874;SDS011;17581;43.222;27.924;2024-02-21T05:41:35;73.22;;;33.75;;
30874;SDS011;17581;43.222;27.924;2024-02-21T05:44:01;81.35;;;34.33;;
30874;SDS011;17581;43.222;27.924;2024-02-21T05:46:26;73.40;;;34.40;;
30874;SDS011;17581;43.222;27.924;2024-02-21T05:48:52;55.67;;;30.92;;
30874;SDS011;17581;43.222;27.924;2024-02-21T05:51:17;78.85;;;35.13;;
30874;SDS011;17581;43.222;27.924;2024-02-21T05:53:43;84.85;;;35.83;;
30874;SDS011;17581;43.222;27.924;2024-02-21T05:56:11;80.18;;;35.00;;
30874;SDS011;17581;43.222;27.924;2024-02-21T05:58:38;73.10;;;35.72;;
30874;SDS011;17581;43.222;27.924;2024-02-21T06:01:04;95.90;;;34.88;;
30874;SDS011;17581;43.222;27.924;2024-02-21T06:03:31;94.47;;;36.15;;
30874;SDS011;17581;43.222;27.924;2024-02-21T06:05:58;77.30;;;34.42;;
30874;SDS011;17581;43.222;27.924;2024-02-21T06:08:24;81.25;;;37.85;;
30874;SDS011;17581;43.222;27.924;2024-02-21T06:10:49;87.90;;;37.20;;
30874;SDS011;17581;43.222;27.924;2024-02-21T06:13:19;65.45;;;37.25;;
30874;SDS011;17581;43.222;27.924;2024-02-21T06:15:46;87.20;;;39.97;;
30874;SDS011;17581;43.222;27.924;2024-02-21T06:18:12;78.55;;;37.83;;
30874;SDS011;17581;43.222;27.924;2024-02-21T06:20:37;71.65;;;38.35;;
30874;SDS011;17581;43.222;27.924;2024-02-21T06:23:05;92.85;;;42.38;;
30874;SDS011;17581;43.222;27.924;2024-02-21T06:25:31;92.13;;;42.33;;
30874;SDS011;17581;43.222;27.924;2024-02-21T06:27:57;97.15;;;45.15;;
30874;SDS011;17581;43.222;27.924;2024-02-21T06:30:22;116.20;;;41.45;;
30874;SDS011;17581;43.222;27.924;2024-02-21T06:32:48;87.85;;;40.78;;
30874;SDS011;17581;43.222;27.924;2024-02-21T06:35:13;76.97;;;40.75;;
30874;SDS011;17581;43.222;27.924;2024-02-21T06:37:39;78.88;;;39.92;;
30874;SDS011;17581;43.222;27.924;2024-02-21T06:40:04;88.13;;;38.47;;
30874;SDS011;17581;43.222;27.924;2024-02-21T06:42:30;87.45;;;39.70;;
30874;SDS011;17581;43.222;27.924;2024-02-21T06:44:56;73.60;;;35.05;;
30874;SDS011;17581;43.222;27.924;2024-02-21T06:47:22;66.60;;;37.20;;
30874;SDS011;17581;43.222;27.924;2024-02-21T06:49:50;73.70;;;37.17;;
30874;SDS011;17581;43.222;27.924;2024-02-21T06:52:19;73.65;;;35.45;;
30874;SDS011;17581;43.222;27.924;2024-02-21T06:54:46;79.13;;;38.70;;
30874;SDS011;17581;43.222;27.924;2024-02-21T06:57:12;67.10;;;35.92;;
30874;SDS011;17581;43.222;27.924;2024-02-21T06:59:39;77.55;;;35.15;;
30874;SDS011;17581;43.222;27.924;2024-02-21T07:02:05;58.70;;;36.92;;
30874;SDS011;17581;43.222;27.924;2024-02-21T07:04:31;70.40;;;38.72;;
30874;SDS011;17581;43.222;27.924;2024-02-21T07:06:56;84.10;;;42.08;;
30874;SDS011;17581;43.222;27.924;2024-02-21T07:09:22;88.45;;;45.35;;
30874;SDS011;17581;43.222;27.924;2024-02-21T07:11:47;82.90;;;47.75;;
30874;SDS011;17581;43.222;27.924;2024-02-21T07:14:14;97.43;;;48.80;;
30874;SDS011;17581;43.222;27.924;2024-02-21T07:16:40;106.35;;;52.90;;
30874;SDS011;17581;43.222;27.924;2024-02-21T07:19:05;90.60;;;51.05;;
30874;SDS011;17581;43.222;27.924;2024-02-21T07:21:31;122.43;;;54.83;;
30874;SDS011;17581;43.222;27.924;2024-02-21T07:23:56;89.75;;;51.28;;
30874;SDS011;17581;43.222;27.924;2024-02-21T07:26:22;94.38;;;56.05;;
30874;SDS011;17581;43.222;27.924;2024-02-21T07:28:48;87.72;;;52.53;;
30874;SDS011;17581;43.222;27.924;2024-02-21T07:31:13;118.20;;;66.65;;
30874;SDS011;17581;43.222;27.924;2024-02-21T07:33:39;121.65;;;65.35;;
30874;SDS011;17581;43.222;27.924;2024-02-21T07:36:07;121.53;;;67.15;;
30874;SDS011;17581;43.222;27.924;2024-02-21T07:38:35;113.47;;;68.10;;
30874;SDS011;17581;43.222;27.924;2024-02-21T07:41:01;125.32;;;72.20;;
30874;SDS011;17581;43.222;27.924;2024-02-21T07:43:26;122.60;;;77.30;;
30874;SDS011;17581;43.222;27.924;2024-02-21T07:45:52;147.35;;;76.55;;
30874;SDS011;17581;43.222;27.924;2024-02-21T07:48:21;148.05;;;79.40;;
30874;SDS011;17581;43.222;27.924;2024-02-21T07:50:50;146.60;;;78.45;;
30874;SDS011;17581;43.222;27.924;2024-02-21T07:53:16;135.20;;;79.95;;
30874;SDS011;17581;43.222;27.924;2024-02-21T07:55:41;123.28;;;75.20;;
30874;SDS011;17581;43.222;27.924;2024-02-21T07:58:07;110.10;;;67.47;;
30874;SDS011;17581;43.222;27.924;2024-02-21T08:00:32;106.57;;;62.65;;
30874;SDS011;17581;43.222;27.924;2024-02-21T08:02:58;111.28;;;63.55;;
30874;SDS011;17581;43.222;27.924;2024-02-21T08:05:24;101.40;;;56.15;;
30874;SDS011;17581;43.222;27.924;2024-02-21T08:07:49;105.78;;;57.63;;
30874;SDS011;17581;43.222;27.924;2024-02-21T08:10:15;106.63;;;56.53;;
30874;SDS011;17581;43.222;27.924;2024-02-21T08:12:41;99.70;;;53.45;;
30874;SDS011;17581;43.222;27.924;2024-02-21T08:15:06;88.28;;;50.88;;
30874;SDS011;17581;43.222;27.924;2024-02-21T08:17:35;74.45;;;44.92;;
30874;SDS011;17581;43.222;27.924;2024-02-21T08:20:01;86.85;;;47.15;;
30874;SDS011;17581;43.222;27.924;2024-02-21T08:22:27;74.35;;;45.42;;
30874;SDS011;17581;43.222;27.924;2024-02-21T08:24:53;75.85;;;46.47;;
30874;SDS011;17581;43.222;27.924;2024-02-21T08:27:19;81.78;;;48.33;;
30874;SDS011;17581;43.222;27.924;2024-02-21T08:29:44;80.93;;;45.55;;
30874;SDS011;17581;43.222;27.924;2024-02-21T08:32:10;81.13;;;46.97;;
30874;SDS011;17581;43.222;27.924;2024-02-21T08:34:35;91.53;;;50.60;;
30874;SDS011;17581;43.222;27.924;2024-02-21T08:37:01;89.32;;;53.40;;
30874;SDS011;17581;43.222;27.924;2024-02-21T08:39:26;107.43;;;57.35;;
30874;SDS011;17581;43.222;27.924;2024-02-21T08:41:53;95.07;;;57.67;;
30874;SDS011;17581;43.222;27.924;2024-02-21T08:44:19;104.28;;;54.38;;
30874;SDS011;17581;43.222;27.924;2024-02-21T08:46:45;119.00;;;58.08;;
30874;SDS011;17581;43.222;27.924;2024-02-21T08:49:12;82.47;;;46.65;;
30874;SDS011;17581;43.222;27.924;2024-02-21T08:51:38;85.88;;;48.42;;
30874;SDS011;17581;43.222;27.924;2024-02-21T08:54:04;73.05;;;41.10;;
30874;SDS011;17581;43.222;27.924;2024-02-21T08:56:30;89.95;;;46.03;;
30874;SDS011;17581;43.222;27.924;2024-02-21T08:58:56;91.30;;;43.47;;
30874;SDS011;17581;43.222;27.924;2024-02-21T09:01:24;80.90;;;45.13;;
30874;SDS011;17581;43.222;27.924;2024-02-21T09:03:53;68.05;;;42.42;;
30874;SDS011;17581;43.222;27.924;2024-02-21T09:06:25;60.72;;;36.42;;
30874;SDS011;17581;43.222;27.924;2024-02-21T09:08:50;63.15;;;37.70;;
30874;SDS011;17581;43.222;27.924;2024-02-21T09:11:16;79.57;;;43.70;;
30874;SDS011;17581;43.222;27.924;2024-02-21T09:13:41;73.43;;;40.45;;
30874;SDS011;17581;43.222;27.924;2024-02-21T09:16:07;80.07;;;37.50;;
30874;SDS011;17581;43.222;27.924;2024-02-21T09:18:34;61.08;;;37.28;;
30874;SDS011;17581;43.222;27.924;2024-02-21T09:20:59;59.58;;;36.35;;
30874;SDS011;17581;43.222;27.924;2024-02-21T09:23:25;62.05;;;35.67;;
30874;SDS011;17581;43.222;27.924;2024-02-21T09:25:50;69.38;;;38.70;;
30874;SDS011;17581;43.222;27.924;2024-02-21T09:28:16;56.97;;;37.47;;
30874;SDS011;17581;43.222;27.924;2024-02-21T09:30:41;56.90;;;34.90;;
30874;SDS011;17581;43.222;27.924;2024-02-21T09:33:07;79.10;;;39.63;;
30874;SDS011;17581;43.222;27.924;2024-02-21T09:35:32;57.15;;;36.83;;
30874;SDS011;17581;43.222;27.924;2024-02-21T09:37:58;58.50;;;34.90;;
30874;SDS011;17581;43.222;27.924;2024-02-21T09:40:24;60.40;;;34.58;;
30874;SDS011;17581;43.222;27.924;2024-02-21T09:42:50;61.28;;;34.67;;
30874;SDS011;17581;43.222;27.924;2024-02-21T09:45:28;54.80;;;34.28;;
30874;SDS011;17581;43.222;27.924;2024-02-21T09:50:38;51.70;;;31.30;;
30874;SDS011;17581;43.222;27.924;2024-02-21T09:53:08;57.50;;;34.45;;
30874;SDS011;17581;43.222;27.924;2024-02-21T09:55:37;47.25;;;32.85;;
30874;SDS011;17581;43.222;27.924;2024-02-21T09:58:05;62.20;;;34.10;;
30874;SDS011;17581;43.222;27.924;2024-02-21T10:00:31;51.22;;;31.83;;
30874;SDS011;17581;43.222;27.924;2024-02-21T10:02:56;47.03;;;32.10;;
30874;SDS011;17581;43.222;27.924;2024-02-21T10:05:23;47.92;;;30.38;;
30874;SDS011;17581;43.222;27.924;2024-02-21T10:07:51;62.67;;;34.28;;
30874;SDS011;17581;43.222;27.924;2024-02-21T10:10:16;60.90;;;35.33;;
30874;SDS011;17581;43.222;27.924;2024-02-21T10:12:52;50.90;;;32.92;;
30874;SDS011;17581;43.222;27.924;2024-02-21T10:15:23;66.47;;;34.65;;
30874;SDS011;17581;43.222;27.924;2024-02-21T10:17:59;55.72;;;35.42;;
30874;SDS011;17581;43.222;27.924;2024-02-21T10:20:25;57.50;;;35.15;;
30874;SDS011;17581;43.222;27.924;2024-02-21T10:23:01;64.90;;;35.35;;
30874;SDS011;17581;43.222;27.924;2024-02-21T10:25:32;67.15;;;36.38;;
30874;SDS011;17581;43.222;27.924;2024-02-21T10:27:58;62.83;;;35.97;;
30874;SDS011;17581;43.222;27.924;2024-02-21T10:30:24;50.75;;;34.08;;
30874;SDS011;17581;43.222;27.924;2024-02-21T10:32:50;58.45;;;35.00;;
30874;SDS011;17581;43.222;27.924;2024-02-21T10:35:25;63.55;;;34.40;;
30874;SDS011;17581;43.222;27.924;2024-02-21T10:37:52;60.95;;;35.40;;
30874;SDS011;17581;43.222;27.924;2024-02-21T10:40:21;79.88;;;38.42;;
30874;SDS011;17581;43.222;27.924;2024-02-21T10:42:48;60.28;;;34.30;;
30874;SDS011;17581;43.222;27.924;2024-02-21T10:45:16;73.60;;;38.40;;
30874;SDS011;17581;43.222;27.924;2024-02-21T10:47:42;86.55;;;37.60;;
30874;SDS011;17581;43.222;27.924;2024-02-21T10:50:17;77.53;;;39.55;;
30874;SDS011;17581;43.222;27.924;2024-02-21T10:52:47;79.07;;;42.97;;
30874;SDS011;17581;43.222;27.924;2024-02-21T10:55:31;79.53;;;44.03;;
30874;SDS011;17581;43.222;27.924;2024-02-21T10:58:04;75.13;;;45.85;;
30874;SDS011;17581;43.222;27.924;2024-02-21T11:00:30;89.10;;;47.75;;
30874;SDS011;17581;43.222;27.924;2024-02-21T11:02:56;91.70;;;49.42;;
30874;SDS011;17581;43.222;27.924;2024-02-21T11:05:24;85.55;;;49.05;;
30874;SDS011;17581;43.222;27.924;2024-02-21T11:07:50;80.95;;;48.08;;
30874;SDS011;17581;43.222;27.924;2024-02-21T11:10:20;81.93;;;46.65;;
30874;SDS011;17581;43.222;27.924;2024-02-21T11:12:52;81.75;;;45.45;;
30874;SDS011;17581;43.222;27.924;2024-02-21T11:15:19;62.00;;;37.85;;
30874;SDS011;17581;43.222;27.924;2024-02-21T11:17:54;70.60;;;37.67;;
30874;SDS011;17581;43.222;27.924;2024-02-21T11:20:20;68.38;;;35.97;;
30874;SDS011;17581;43.222;27.924;2024-02-21T11:22:56;52.38;;;32.38;;
30874;SDS011;17581;43.222;27.924;2024-02-21T11:25:22;65.63;;;41.42;;
30874;SDS011;17581;43.222;27.924;2024-02-21T11:27:47;61.45;;;34.33;;
30874;SDS011;17581;43.222;27.924;2024-02-21T11:30:13;66.35;;;35.35;;
30874;SDS011;17581;43.222;27.924;2024-02-21T11:32:39;63.15;;;37.30;;
30874;SDS011;17581;43.222;27.924;2024-02-21T11:35:06;84.55;;;35.08;;
30874;SDS011;17581;43.222;27.924;2024-02-21T11:37:32;66.65;;;36.03;;
30874;SDS011;17581;43.222;27.924;2024-02-21T11:40:02;59.92;;;34.67;;
30874;SDS011;17581;43.222;27.924;2024-02-21T11:42:28;58.55;;;35.10;;
30874;SDS011;17581;43.222;27.924;2024-02-21T11:44:54;63.35;;;33.72;;
30874;SDS011;17581;43.222;27.924;2024-02-21T11:47:24;56.53;;;33.83;;
30874;SDS011;17581;43.222;27.924;2024-02-21T11:49:50;70.00;;;33.47;;
30874;SDS011;17581;43.222;27.924;2024-02-21T11:52:19;72.05;;;34.60;;
30874;SDS011;17581;43.222;27.924;2024-02-21T11:54:50;93.50;;;39.22;;
30874;SDS011;17581;43.222;27.924;2024-02-21T11:57:16;44.88;;;31.48;;
30874;SDS011;17581;43.222;27.924;2024-02-21T11:59:44;60.28;;;33.40;;
30874;SDS011;17581;43.222;27.924;2024-02-21T12:02:10;57.45;;;34.85;;
30874;SDS011;17581;43.222;27.924;2024-02-21T12:04:37;64.53;;;36.20;;
30874;SDS011;17581;43.222;27.924;2024-02-21T12:07:03;64.28;;;34.55;;
30874;SDS011;17581;43.222;27.924;2024-02-21T12:09:29;73.38;;;33.40;;
30874;SDS011;17581;43.222;27.924;2024-02-21T12:12:05;54.88;;;35.17;;
30874;SDS011;17581;43.222;27.924;2024-02-21T12:14:32;67.95;;;36.10;;
30874;SDS011;17581;43.222;27.924;2024-02-21T12:16:58;106.25;;;40.03;;
30874;SDS011;17581;43.222;27.924;2024-02-21T12:19:25;53.22;;;34.08;;
30874;SDS011;17581;43.222;27.924;2024-02-21T12:21:51;72.90;;;34.55;;
30874;SDS011;17581;43.222;27.924;2024-02-21T12:24:23;69.97;;;36.10;;
30874;SDS011;17581;43.222;27.924;2024-02-21T12:26:50;52.20;;;34.67;;
30874;SDS011;17581;43.222;27.924;2024-02-21T12:29:20;67.43;;;35.70;;
30874;SDS011;17581;43.222;27.924;2024-02-21T12:31:46;77.80;;;35.08;;
30874;SDS011;17581;43.222;27.924;2024-02-21T12:34:12;64.85;;;35.58;;
30874;SDS011;17581;43.222;27.924;2024-02-21T12:36:41;70.32;;;36.60;;
30874;SDS011;17581;43.222;27.924;2024-02-21T12:39:08;70.55;;;35.60;;
30874;SDS011;17581;43.222;27.924;2024-02-21T12:41:34;55.63;;;35.40;;
30874;SDS011;17581;43.222;27.924;2024-02-21T12:44:09;61.63;;;35.28;;
30874;SDS011;17581;43.222;27.924;2024-02-21T12:46:38;54.97;;;35.00;;
30874;SDS011;17581;43.222;27.924;2024-02-21T12:49:04;79.90;;;36.58;;
30874;SDS011;17581;43.222;27.924;2024-02-21T12:51:30;61.85;;;35.28;;
30874;SDS011;17581;43.222;27.924;2024-02-21T12:53:56;54.17;;;33.33;;
30874;SDS011;17581;43.222;27.924;2024-02-21T12:56:22;66.18;;;36.33;;
30874;SDS011;17581;43.222;27.924;2024-02-21T12:58:49;69.20;;;37.25;;
30874;SDS011;17581;43.222;27.924;2024-02-21T13:01:15;61.70;;;37.40;;
30874;SDS011;17581;43.222;27.924;2024-02-21T13:03:41;84.38;;;37.65;;
30874;SDS011;17581;43.222;27.924;2024-02-21T13:06:07;68.15;;;37.53;;
30874;SDS011;17581;43.222;27.924;2024-02-21T13:08:35;56.53;;;35.50;;
30874;SDS011;17581;43.222;27.924;2024-02-21T13:11:02;75.18;;;38.30;;
30874;SDS011;17581;43.222;27.924;2024-02-21T13:13:29;67.50;;;36.95;;
30874;SDS011;17581;43.222;27.924;2024-02-21T13:15:54;61.63;;;38.05;;
30874;SDS011;17581;43.222;27.924;2024-02-21T13:18:20;64.25;;;38.05;;
30874;SDS011;17581;43.222;27.924;2024-02-21T13:20:46;90.78;;;40.85;;
30874;SDS011;17581;43.222;27.924;2024-02-21T13:23:12;67.78;;;35.78;;
30874;SDS011;17581;43.222;27.924;2024-02-21T13:25:38;70.90;;;34.30;;
30874;SDS011;17581;43.222;27.924;2024-02-21T13:28:03;64.47;;;34.33;;
30874;SDS011;17581;43.222;27.924;2024-02-21T13:30:29;53.97;;;33.55;;
30874;SDS011;17581;43.222;27.924;2024-02-21T13:32:55;60.30;;;32.53;;
30874;SDS011;17581;43.222;27.924;2024-02-21T13:35:20;54.55;;;33.72;;
30874;SDS011;17581;43.222;27.924;2024-02-21T13:37:46;52.25;;;31.88;;
30874;SDS011;17581;43.222;27.924;2024-02-21T13:40:12;65.68;;;35.80;;
30874;SDS011;17581;43.222;27.924;2024-02-21T13:42:38;57.22;;;31.80;;
30874;SDS011;17581;43.222;27.924;2024-02-21T13:45:05;55.97;;;30.65;;
30874;SDS011;17581;43.222;27.924;2024-02-21T13:47:32;62.88;;;30.05;;
30874;SDS011;17581;43.222;27.924;2024-02-21T13:49:58;65.20;;;31.45;;
30874;SDS011;17581;43.222;27.924;2024-02-21T13:52:24;47.42;;;29.40;;
30874;SDS011;17581;43.222;27.924;2024-02-21T13:54:51;70.60;;;31.30;;
30874;SDS011;17581;43.222;27.924;2024-02-21T13:57:17;45.63;;;29.25;;
30874;SDS011;17581;43.222;27.924;2024-02-21T13:59:43;61.72;;;32.13;;
30874;SDS011;17581;43.222;27.924;2024-02-21T14:02:08;63.55;;;30.42;;
30874;SDS011;17581;43.222;27.924;2024-02-21T14:04:34;62.35;;;29.23;;
30874;SDS011;17581;43.222;27.924;2024-02-21T14:07:00;62.38;;;30.25;;
30874;SDS011;17581;43.222;27.924;2024-02-21T14:09:25;58.00;;;28.05;;